Main page
METAR-TAF:

METAR-TAF

Airports :

Iași International Airport

Iasi, Romania

latitude: 47-10N, longitude: 027-38E, elevation: 102 m

Current weather observation

The report was made 10 minutes ago, at 12:00 UTC
Wind 3 kt from variable directions
Temperature 8°C
Humidity 12%
Pressure 1021 hPa
Visibility 10 km or more
no clouds below 1500 m and no cumulonimbus

METAR: LRIA 011200Z VRB03KT CAVOK 08/M20 Q1021

Time: 15:10 (12:10 UTC)

Forecast

The report was made 1 hour and 10 minutes ago, at 11:00 UTC
Forecast valid from 01 at 12 UTC to 01 at 21 UTC
Wind 4 kt from variable directions
Visibility 10 km or more
no clouds below 1500 m and no cumulonimbus

TAF: LRIA 011100Z 0112/0121 VRB04KT CAVOK

Weather observations and forecasts of more than 4000 airports (METAR and TAF reports).

The available stations are represented by yellow and red dots on the map.

Hover mouse over dot to see the name of the station.

Then click to see weather observations and forecasts.

To change the map : click on the green buttons with a black cross to zoom in, on the green button with a dash to zoom out, or on the green arrows for adjacent maps.


METAR-TAF: